Time;durP1;ratioP1;P1;durP2;ratioP2;P2;SDS_P1;SDS_P2;PMS_P1;PMS_P2;Temp;Humidity;BMP_temperature;BMP_pressure;BME280_temperature;BME280_humidity;BME280_pressure;Samples;Min_cycle;Max_cycle;Signal;HPM_P1;HPM_P2
2021/09/15 00:02:23;;;;;;;1.30;1.20;;;18.80;99.90;;;;;;5049536;28;20708;-73
2021/09/15 00:04:50;;;;;;;1.02;1.02;;;18.80;99.90;;;;;;5049344;28;20618;-73
2021/09/15 00:07:17;;;;;;;1.20;1.10;;;18.80;99.90;;;;;;5050102;28;20198;-73
2021/09/15 00:09:44;;;;;;;1.13;1.10;;;18.80;99.90;;;;;;5047248;28;20228;-73
2021/09/15 00:12:11;;;;;;;1.05;1.05;;;18.70;99.90;;;;;;5042440;28;20734;-73
2021/09/15 00:14:39;;;;;;;1.15;1.15;;;18.70;99.90;;;;;;5042085;28;20206;-73
2021/09/15 00:17:06;;;;;;;0.90;0.90;;;18.70;99.90;;;;;;5049202;28;20700;-73
2021/09/15 00:19:33;;;;;;;1.00;1.00;;;18.70;99.90;;;;;;5048025;28;20271;-73
2021/09/15 00:22:00;;;;;;;1.00;1.00;;;18.70;99.90;;;;;;5048501;28;20602;-73
2021/09/15 00:24:27;;;;;;;1.05;1.05;;;18.70;99.90;;;;;;5047729;28;20674;-73
2021/09/15 00:26:53;;;;;;;1.10;1.10;;;18.70;99.90;;;;;;5047524;28;20217;-73
2021/09/15 00:29:20;;;;;;;1.20;1.10;;;18.60;99.90;;;;;;5048446;28;20316;-73
2021/09/15 00:31:49;;;;;;;1.73;1.30;;;18.70;99.90;;;;;;5049521;28;20662;-73
2021/09/15 00:34:16;;;;;;;1.38;1.27;;;18.70;99.90;;;;;;5050343;28;20292;-73
2021/09/15 00:36:43;;;;;;;1.30;1.20;;;18.60;99.90;;;;;;5049903;28;20506;-73
2021/09/15 00:39:10;;;;;;;1.00;0.90;;;18.70;99.90;;;;;;5047499;28;20775;-73
2021/09/15 00:41:37;;;;;;;1.25;1.25;;;18.60;99.90;;;;;;5046830;28;20237;-73
2021/09/15 00:44:07;;;;;;;1.52;1.40;;;18.60;99.90;;;;;;5049590;28;20213;-74
2021/09/15 00:46:35;;;;;;;1.25;1.25;;;18.60;99.90;;;;;;5044857;28;20708;-73
2021/09/15 00:49:04;;;;;;;1.42;1.33;;;18.50;99.90;;;;;;5045318;28;20203;-73
2021/09/15 00:51:36;;;;;;;1.50;1.40;;;18.50;99.90;;;;;;5047421;28;20276;-73
2021/09/15 00:54:04;;;;;;;1.42;1.33;;;18.50;99.90;;;;;;5047542;28;20263;-73
2021/09/15 00:56:31;;;;;;;1.13;1.13;;;18.50;99.90;;;;;;5045974;28;20640;-73
2021/09/15 00:58:58;;;;;;;1.20;1.20;;;18.50;99.90;;;;;;5047795;28;20216;-73
2021/09/15 01:01:26;;;;;;;1.80;1.70;;;18.50;99.90;;;;;;5046673;28;20252;-73
2021/09/15 01:03:59;;;;;;;1.67;1.58;;;18.50;99.90;;;;;;5047452;28;20619;-73
2021/09/15 01:06:30;;;;;;;1.73;1.63;;;18.80;99.90;;;;;;5047252;28;20788;-74
2021/09/15 01:08:59;;;;;;;1.48;1.38;;;18.50;99.90;;;;;;5047760;28;20205;-73
2021/09/15 01:11:28;;;;;;;2.15;1.95;;;18.40;99.90;;;;;;5044872;28;20669;-73
2021/09/15 01:14:06;;;;;;;1.67;1.58;;;18.40;99.90;;;;;;5032831;28;20221;-73
2021/09/15 01:16:51;;;;;;;1.63;1.52;;;18.40;99.90;;;;;;5043287;28;20240;-73
2021/09/15 01:19:37;;;;;;;1.73;1.60;;;18.30;99.90;;;;;;5048831;28;20205;-73
2021/09/15 01:22:25;;;;;;;1.58;1.48;;;18.30;99.90;;;;;;5048664;28;20660;-73
2021/09/15 01:25:18;;;;;;;2.10;1.90;;;18.30;99.90;;;;;;5045126;28;20202;-73
2021/09/15 01:28:08;;;;;;;1.60;1.50;;;18.20;99.90;;;;;;5047739;28;20216;-73
2021/09/15 01:30:45;;;;;;;1.70;1.60;;;18.20;99.90;;;;;;5047105;28;20221;-73
2021/09/15 01:33:13;;;;;;;2.45;1.75;;;18.20;99.90;;;;;;5047313;28;20208;-72
2021/09/15 01:35:42;;;;;;;2.05;1.50;;;18.20;99.90;;;;;;5047729;28;20289;-72
2021/09/15 01:38:12;;;;;;;1.98;1.88;;;18.10;99.90;;;;;;5047485;28;20258;-72
2021/09/15 01:40:40;;;;;;;1.45;1.40;;;18.10;99.90;;;;;;5047625;28;20198;-72
2021/09/15 01:43:08;;;;;;;1.75;1.65;;;18.10;99.90;;;;;;5047445;28;20190;-72
2021/09/15 01:45:35;;;;;;;1.55;1.48;;;18.10;99.90;;;;;;5047660;28;20267;-72
2021/09/15 01:48:06;;;;;;;1.80;1.57;;;18.10;99.90;;;;;;5045232;28;20577;-73
2021/09/15 01:50:34;;;;;;;2.88;1.70;;;18.10;99.90;;;;;;5047111;28;20228;-73
2021/09/15 01:53:01;;;;;;;1.20;1.20;;;18.00;99.90;;;;;;5046739;28;20214;-73
2021/09/15 01:55:32;;;;;;;1.73;1.63;;;18.00;99.90;;;;;;5046568;28;20198;-72
2021/09/15 01:58:22;;;;;;;1.60;1.50;;;18.00;99.90;;;;;;4985931;28;20625;-73
2021/09/15 02:01:06;;;;;;;4.60;1.50;;;18.00;99.90;;;;;;4965592;28;20205;-72
2021/09/15 02:03:52;;;;;;;2.50;1.95;;;17.90;99.90;;;;;;4986274;28;20584;-75
2021/09/15 02:06:30;;;;;;;1.65;1.50;;;17.90;99.90;;;;;;4970100;28;20697;-73
2021/09/15 02:09:02;;;;;;;1.80;1.70;;;17.90;99.90;;;;;;4963147;28;20248;-73
2021/09/15 02:11:45;;;;;;;1.77;1.67;;;17.60;99.90;;;;;;4967756;28;20203;-73
2021/09/15 02:14:12;;;;;;;1.63;1.52;;;17.80;99.90;;;;;;4970123;28;20256;-73
2021/09/15 02:16:47;;;;;;;1.50;1.40;;;17.80;99.90;;;;;;4969723;28;20222;-73
2021/09/15 02:19:14;;;;;;;1.60;1.50;;;17.80;99.90;;;;;;4970445;28;20225;-74
2021/09/15 02:22:00;;;;;;;1.50;1.40;;;17.70;99.90;;;;;;4984784;28;20220;-73
2021/09/15 02:24:44;;;;;;;1.67;1.40;;;17.70;99.90;;;;;;4969491;28;20398;-73
2021/09/15 02:27:30;;;;;;;1.60;1.50;;;17.70;99.90;;;;;;4984815;28;20213;-73
2021/09/15 02:30:00;;;;;;;1.60;1.50;;;17.60;99.90;;;;;;4969831;28;20403;-73
2021/09/15 02:32:32;;;;;;;1.55;1.45;;;17.60;99.90;;;;;;4968822;28;20221;-73
2021/09/15 02:35:18;;;;;;;1.50;1.40;;;17.50;99.90;;;;;;4999167;28;20622;-73
2021/09/15 02:38:07;;;;;;;1.43;1.33;;;17.50;99.90;;;;;;5046640;28;20211;-73
2021/09/15 02:40:54;;;;;;;1.50;1.40;;;17.40;99.90;;;;;;5045678;28;20935;-73
2021/09/15 02:43:40;;;;;;;1.70;1.60;;;17.40;99.90;;;;;;5050066;28;20214;-73
2021/09/15 02:46:23;;;;;;;1.40;1.30;;;17.40;99.90;;;;;;5046682;28;20208;-73
2021/09/15 02:49:05;;;;;;;1.60;1.35;;;17.30;99.90;;;;;;5050227;28;20200;-73
2021/09/15 02:51:43;;;;;;;1.42;1.33;;;17.30;99.90;;;;;;5050094;28;20620;-73
2021/09/15 02:54:20;;;;;;;1.40;1.30;;;17.30;99.90;;;;;;5049695;28;20590;-73
2021/09/15 02:57:04;;;;;;;1.60;1.50;;;17.20;99.90;;;;;;5048938;28;20330;-73
2021/09/15 02:59:40;;;;;;;2.90;1.47;;;17.20;99.90;;;;;;5050093;28;20515;-73
2021/09/15 03:02:24;;;;;;;1.67;1.57;;;17.20;99.90;;;;;;5048570;28;20687;-73
2021/09/15 03:05:12;;;;;;;1.43;1.30;;;17.10;99.90;;;;;;5049866;28;20210;-73
2021/09/15 03:08:05;;;;;;;1.37;1.30;;;17.10;99.90;;;;;;5049734;28;20199;-73
2021/09/15 03:10:32;;;;;;;1.50;1.40;;;17.10;99.90;;;;;;5049119;28;20224;-73
2021/09/15 03:12:59;;;;;;;1.13;1.13;;;17.00;99.90;;;;;;5047534;28;20237;-73
2021/09/15 03:15:28;;;;;;;1.40;1.30;;;17.00;99.90;;;;;;5049543;28;20725;-72
2021/09/15 03:17:55;;;;;;;1.87;1.37;;;17.00;99.90;;;;;;5049079;28;20248;-73
2021/09/15 03:20:22;;;;;;;2.53;1.20;;;16.90;99.90;;;;;;5050148;28;20282;-73
2021/09/15 03:22:49;;;;;;;1.40;1.30;;;16.90;99.90;;;;;;5049159;28;20235;-74
2021/09/15 03:25:16;;;;;;;1.50;1.40;;;16.90;99.90;;;;;;5048910;28;20203;-73
2021/09/15 03:27:43;;;;;;;1.80;1.70;;;16.90;99.90;;;;;;5049695;28;20236;-73
2021/09/15 03:30:11;;;;;;;1.40;1.30;;;16.80;99.90;;;;;;5049565;28;20214;-73
2021/09/15 03:32:40;;;;;;;1.43;1.33;;;16.80;99.90;;;;;;5081920;28;20206;-73
2021/09/15 03:35:10;;;;;;;1.57;1.47;;;16.80;99.90;;;;;;5049606;28;20202;-73
2021/09/15 03:37:37;;;;;;;1.50;1.40;;;16.80;99.90;;;;;;5049138;28;20297;-73
2021/09/15 03:40:06;;;;;;;1.33;1.33;;;16.80;99.90;;;;;;5049298;28;20224;-73
2021/09/15 03:42:33;;;;;;;1.63;1.53;;;16.70;99.90;;;;;;5047167;28;20206;-72
2021/09/15 03:45:00;;;;;;;1.47;1.37;;;16.70;99.90;;;;;;5049837;28;20208;-73
2021/09/15 03:47:27;;;;;;;1.93;1.73;;;16.60;99.90;;;;;;5049057;28;20211;-72
2021/09/15 03:49:56;;;;;;;1.60;1.50;;;16.60;99.90;;;;;;5050696;28;20190;-73
2021/09/15 03:52:23;;;;;;;1.57;1.47;;;16.60;99.90;;;;;;5048271;28;20263;-72
2021/09/15 03:54:50;;;;;;;1.73;1.63;;;16.60;99.90;;;;;;5048390;28;20202;-72
2021/09/15 03:57:18;;;;;;;1.77;1.67;;;16.50;99.90;;;;;;5047599;28;20204;-72
2021/09/15 03:59:45;;;;;;;1.97;1.87;;;16.40;99.90;;;;;;5050560;28;20206;-72
2021/09/15 04:02:12;;;;;;;2.20;2.03;;;16.30;99.90;;;;;;5048155;28;20265;-73
2021/09/15 04:04:39;;;;;;;2.20;2.00;;;16.20;99.90;;;;;;5048391;28;20230;-72
2021/09/15 04:07:08;;;;;;;2.17;1.97;;;16.10;99.90;;;;;;5048310;28;20569;-73
2021/09/15 04:09:37;;;;;;;2.30;2.10;;;16.00;99.90;;;;;;5048128;28;20204;-73
2021/09/15 04:12:05;;;;;;;2.10;2.00;;;15.90;99.90;;;;;;5040879;28;20245;-73
2021/09/15 04:14:33;;;;;;;2.00;1.90;;;15.90;99.90;;;;;;5048189;28;20202;-72
2021/09/15 04:17:00;;;;;;;1.63;1.53;;;15.80;99.90;;;;;;5049363;28;20205;-73
2021/09/15 04:19:30;;;;;;;2.30;2.10;;;15.80;99.90;;;;;;5048701;28;20264;-72
2021/09/15 04:21:57;;;;;;;2.27;2.07;;;15.70;99.90;;;;;;5048161;28;20205;-72
2021/09/15 04:32:46;;;;;;;1.67;1.57;;;15.60;99.90;;;;;;4990059;28;20658;-72
2021/09/15 04:35:14;;;;;;;1.50;1.40;;;15.60;99.90;;;;;;4991057;28;20207;-74
2021/09/15 04:37:41;;;;;;;1.80;1.70;;;15.50;99.90;;;;;;4990820;28;20212;-73
2021/09/15 04:40:11;;;;;;;1.50;1.40;;;15.50;99.90;;;;;;4990415;28;20315;-73
2021/09/15 04:42:38;;;;;;;1.90;1.80;;;15.50;99.90;;;;;;4997487;28;20215;-72
2021/09/15 04:45:09;;;;;;;1.57;1.47;;;15.50;99.90;;;;;;4990542;28;20290;-73
2021/09/15 04:47:37;;;;;;;1.80;1.70;;;15.50;99.90;;;;;;4992661;28;20199;-73
2021/09/15 04:50:05;;;;;;;1.77;1.67;;;15.50;99.90;;;;;;4989436;28;20568;-73
2021/09/15 04:52:32;;;;;;;1.50;1.40;;;15.50;99.90;;;;;;4987531;28;20235;-73
2021/09/15 04:55:00;;;;;;;2.10;2.00;;;15.50;99.90;;;;;;4988675;28;20703;-72
2021/09/15 04:57:28;;;;;;;2.00;1.87;;;15.50;99.90;;;;;;4985757;28;20683;-73
2021/09/15 04:59:55;;;;;;;2.60;2.37;;;15.50;99.90;;;;;;4988560;28;20365;-72
2021/09/15 05:02:23;;;;;;;2.10;1.90;;;15.60;99.90;;;;;;4988492;28;20207;-73
2021/09/15 05:04:51;;;;;;;2.10;2.00;;;15.50;99.90;;;;;;5041795;28;20574;-73
2021/09/15 05:07:30;;;;;;;2.13;2.00;;;15.50;99.90;;;;;;5039509;28;20245;-73
2021/09/15 05:09:56;;;;;;;2.10;1.90;;;15.50;99.90;;;;;;5047084;28;20209;-73
2021/09/15 05:12:24;;;;;;;1.97;1.87;;;15.50;99.90;;;;;;5045966;28;20242;-73
2021/09/15 05:14:54;;;;;;;2.00;1.80;;;15.50;99.90;;;;;;5047321;28;20229;-73
2021/09/15 05:17:23;;;;;;;2.07;1.90;;;15.40;99.90;;;;;;5047111;28;20452;-73
2021/09/15 05:19:50;;;;;;;1.80;1.70;;;15.40;99.90;;;;;;5047956;28;20202;-73
2021/09/15 05:22:17;;;;;;;2.10;1.90;;;15.50;99.90;;;;;;5047385;28;20627;-74
2021/09/15 05:24:44;;;;;;;2.20;2.00;;;15.40;99.90;;;;;;5044167;28;20214;-74
2021/09/15 05:27:11;;;;;;;2.83;2.23;;;15.40;99.90;;;;;;5046175;28;20570;-74
2021/09/15 05:29:38;;;;;;;2.00;1.90;;;15.50;99.90;;;;;;5046901;28;20194;-73
2021/09/15 05:32:08;;;;;;;2.50;2.23;;;15.50;99.90;;;;;;5046610;28;20513;-74
2021/09/15 05:34:35;;;;;;;2.30;2.10;;;15.50;99.90;;;;;;5047059;28;20232;-73
2021/09/15 05:37:02;;;;;;;1.90;1.80;;;15.50;99.90;;;;;;5046767;28;20206;-74
2021/09/15 05:39:30;;;;;;;2.30;1.90;;;15.60;99.90;;;;;;5046432;28;20749;-74
2021/09/15 05:41:58;;;;;;;1.90;1.80;;;15.60;99.90;;;;;;5045847;28;20217;-73
2021/09/15 05:44:25;;;;;;;1.77;1.67;;;15.70;99.90;;;;;;5046856;28;20637;-74
2021/09/15 05:46:52;;;;;;;2.10;2.00;;;15.70;99.90;;;;;;5046873;28;20639;-73
2021/09/15 05:49:21;;;;;;;2.07;1.93;;;15.80;99.90;;;;;;5047198;28;20209;-74
2021/09/15 05:51:48;;;;;;;2.40;2.20;;;15.90;99.90;;;;;;5047216;28;20204;-73
2021/09/15 05:54:15;;;;;;;2.03;1.83;;;15.90;99.90;;;;;;5045974;28;20652;-73
2021/09/15 05:56:43;;;;;;;3.00;1.93;;;16.00;99.90;;;;;;5045377;28;20202;-72
2021/09/15 05:59:10;;;;;;;3.30;1.87;;;16.00;99.90;;;;;;5046990;28;20213;-72
2021/09/15 06:01:37;;;;;;;2.30;2.10;;;16.10;99.90;;;;;;5046034;28;20340;-73
2021/09/15 06:04:04;;;;;;;2.20;2.10;;;16.20;99.90;;;;;;5046470;28;20209;-73
2021/09/15 06:06:41;;;;;;;1.90;1.80;;;16.30;99.90;;;;;;5047000;28;20229;-72
2021/09/15 06:09:17;;;;;;;2.40;2.20;;;16.40;99.90;;;;;;5056413;28;20205;-72
2021/09/15 06:11:44;;;;;;;2.57;2.37;;;16.80;99.90;;;;;;5042900;28;20276;-73
2021/09/15 06:14:12;;;;;;;2.53;2.33;;;17.70;99.90;;;;;;5041709;28;20200;-72
2021/09/15 06:16:39;;;;;;;2.20;2.00;;;18.90;99.90;;;;;;5047438;28;20282;-73
2021/09/15 06:19:06;;;;;;;2.47;2.28;;;20.00;99.90;;;;;;5050880;28;20321;-74
2021/09/15 06:22:10;;;;;;;2.30;2.10;;;20.90;99.90;;;;;;5017650;28;20292;-74
2021/09/15 06:25:10;;;;;;;4.60;3.13;;;22.00;99.90;;;;;;5011880;28;20376;-73
2021/09/15 06:27:38;;;;;;;2.25;2.15;;;22.80;99.90;;;;;;5011431;28;20212;-74
2021/09/15 06:30:06;;;;;;;3.70;3.40;;;23.30;99.90;;;;;;5012645;28;20210;-73
2021/09/15 06:32:33;;;;;;;4.32;2.83;;;23.80;99.90;;;;;;5018217;28;20191;-74
2021/09/15 06:35:00;;;;;;;2.50;2.38;;;24.30;99.90;;;;;;5006740;28;20300;-74
2021/09/15 06:37:29;;;;;;;2.72;2.53;;;24.90;99.90;;;;;;5023944;28;20222;-73
2021/09/15 06:39:56;;;;;;;4.75;3.53;;;25.30;99.90;;;;;;5023658;28;20697;-74
2021/09/15 06:42:22;;;;;;;5.03;3.50;;;25.70;98.30;;;;;;5018759;28;20219;-73
2021/09/15 06:44:50;;;;;;;9.82;4.22;;;26.20;96.90;;;;;;5027289;28;20214;-74
2021/09/15 06:47:17;;;;;;;4.35;3.17;;;27.20;94.90;;;;;;5023673;28;20195;-73
2021/09/15 06:49:44;;;;;;;4.20;3.80;;;28.40;92.40;;;;;;5021722;28;20218;-73
2021/09/15 06:52:12;;;;;;;8.10;5.43;;;29.60;89.10;;;;;;5026780;28;20550;-73
2021/09/15 06:54:44;;;;;;;5.53;4.38;;;30.80;83.40;;;;;;5017549;28;20254;-74
2021/09/15 06:57:12;;;;;;;4.20;3.80;;;32.00;78.30;;;;;;5046680;28;20273;-74
2021/09/15 06:59:39;;;;;;;3.83;3.55;;;33.10;72.70;;;;;;5048542;28;20201;-74
2021/09/15 07:02:07;;;;;;;3.47;2.90;;;34.20;68.20;;;;;;5049555;28;20244;-74
2021/09/15 07:04:34;;;;;;;3.13;2.83;;;35.10;64.00;;;;;;5048263;28;20204;-74
2021/09/15 07:07:01;;;;;;;3.63;2.40;;;36.00;60.40;;;;;;5047732;28;20505;-74
2021/09/15 07:09:28;;;;;;;3.67;2.75;;;36.40;57.00;;;;;;5043037;28;20201;-75
2021/09/15 07:11:57;;;;;;;3.05;2.83;;;37.40;54.90;;;;;;5046161;28;20216;-76
2021/09/15 07:14:24;;;;;;;2.65;2.45;;;38.40;52.40;;;;;;5049671;28;20217;-74
2021/09/15 07:16:51;;;;;;;2.30;2.20;;;39.30;50.20;;;;;;5047146;28;20203;-73
2021/09/15 07:19:17;;;;;;;2.38;2.28;;;40.10;48.00;;;;;;5050097;28;20194;-75
2021/09/15 07:21:44;;;;;;;2.80;2.60;;;40.80;46.10;;;;;;5047453;28;20221;-74
2021/09/15 07:24:11;;;;;;;5.15;4.70;;;41.30;44.40;;;;;;5046731;28;20190;-72
2021/09/15 07:26:38;;;;;;;4.30;4.00;;;41.90;42.50;;;;;;5047214;28;20202;-73
2021/09/15 07:29:06;;;;;;;4.45;4.15;;;42.50;41.10;;;;;;5048045;28;20204;-74
2021/09/15 07:31:37;;;;;;;3.63;3.33;;;43.00;39.60;;;;;;5042275;28;20215;-73
2021/09/15 07:34:05;;;;;;;3.17;2.97;;;43.50;38.40;;;;;;5044999;28;20223;-73
2021/09/15 07:36:32;;;;;;;2.70;2.50;;;44.00;37.20;;;;;;5046840;28;20217;-73
2021/09/15 07:38:59;;;;;;;2.60;2.40;;;44.40;36.30;;;;;;5050601;28;20653;-76
2021/09/15 07:41:26;;;;;;;2.70;2.60;;;44.50;35.70;;;;;;5046653;28;20680;-72
2021/09/15 07:43:53;;;;;;;2.58;2.47;;;44.40;35.30;;;;;;5047406;28;20291;-71
2021/09/15 07:46:22;;;;;;;2.30;2.20;;;44.10;35.00;;;;;;5045521;28;20204;-70
2021/09/15 07:48:49;;;;;;;3.53;3.20;;;43.90;34.70;;;;;;5041735;28;20241;-70
2021/09/15 07:51:17;;;;;;;3.33;3.10;;;43.90;33.40;;;;;;5048063;28;20458;-71
2021/09/15 07:53:44;;;;;;;2.63;2.53;;;43.60;33.10;;;;;;5040315;28;20205;-71
2021/09/15 07:56:12;;;;;;;2.65;2.55;;;43.90;32.60;;;;;;5047407;28;20194;-70
2021/09/15 07:58:40;;;;;;;2.80;2.60;;;44.10;32.50;;;;;;5046148;28;20205;-71
2021/09/15 08:01:07;;;;;;;2.80;2.70;;;44.40;32.20;;;;;;5048524;28;20599;-71
2021/09/15 08:03:35;;;;;;;3.08;2.50;;;44.70;31.60;;;;;;5046977;28;20205;-71
2021/09/15 08:06:04;;;;;;;2.47;2.38;;;45.00;31.40;;;;;;5043991;28;20458;-71
2021/09/15 08:08:31;;;;;;;2.40;2.30;;;44.80;30.60;;;;;;5047380;28;20431;-71
2021/09/15 08:10:58;;;;;;;2.15;2.05;;;44.90;30.40;;;;;;5047058;28;20240;-71
2021/09/15 08:13:25;;;;;;;2.20;2.10;;;45.10;30.00;;;;;;5036799;28;20571;-72
2021/09/15 08:15:53;;;;;;;2.70;2.50;;;45.60;29.70;;;;;;5047695;28;20525;-71
2021/09/15 08:18:21;;;;;;;2.40;2.30;;;45.70;29.00;;;;;;5045332;28;20216;-71
2021/09/15 08:20:49;;;;;;;2.75;2.65;;;46.10;28.80;;;;;;5049485;28;20283;-71
2021/09/15 08:23:18;;;;;;;2.55;2.42;;;46.50;28.70;;;;;;5047490;28;20185;-71
2021/09/15 08:25:45;;;;;;;3.10;2.90;;;46.90;28.40;;;;;;5045623;28;20436;-71
2021/09/15 08:28:11;;;;;;;2.97;2.80;;;47.20;27.90;;;;;;5047371;28;20279;-71
2021/09/15 08:30:38;;;;;;;2.85;2.75;;;47.50;27.80;;;;;;5047946;28;20298;-71
2021/09/15 08:33:05;;;;;;;3.03;2.80;;;47.70;27.40;;;;;;5047858;28;20554;-71
2021/09/15 08:35:32;;;;;;;2.30;2.20;;;47.90;26.90;;;;;;5047372;28;20201;-71
2021/09/15 08:38:01;;;;;;;1.88;1.77;;;47.60;26.30;;;;;;5047349;28;20267;-76
2021/09/15 08:40:27;;;;;;;2.03;1.92;;;47.80;26.50;;;;;;5047179;28;20202;-76
2021/09/15 08:42:54;;;;;;;2.00;2.00;;;48.20;26.10;;;;;;5046646;28;20254;-77
2021/09/15 08:45:23;;;;;;;2.80;2.70;;;48.50;25.80;;;;;;5047332;28;20205;-77
2021/09/15 08:47:52;;;;;;;3.22;3.03;;;49.10;25.50;;;;;;5043886;28;20217;-76
2021/09/15 08:50:19;;;;;;;2.70;2.60;;;49.50;24.90;;;;;;5050043;28;20193;-75
2021/09/15 08:52:46;;;;;;;2.50;2.40;;;49.80;24.50;;;;;;5046505;28;20223;-76
2021/09/15 08:55:15;;;;;;;2.55;2.45;;;50.30;24.20;;;;;;5077086;28;20430;-70
2021/09/15 08:57:42;;;;;;;2.45;2.35;;;50.60;23.90;;;;;;5037655;28;20197;-70
2021/09/15 09:00:11;;;;;;;3.00;2.72;;;50.50;23.80;;;;;;5045516;28;20208;-69
2021/09/15 09:02:39;;;;;;;2.70;2.60;;;49.90;23.50;;;;;;5045093;28;20646;-71
2021/09/15 09:05:07;;;;;;;2.40;2.30;;;48.90;23.90;;;;;;5047070;28;20649;-70
2021/09/15 09:07:35;;;;;;;2.28;2.17;;;48.30;24.40;;;;;;5045818;28;20198;-69
2021/09/15 09:10:07;;;;;;;2.40;2.30;;;47.90;24.30;;;;;;5046803;28;20205;-70
2021/09/15 09:12:37;;;;;;;3.30;2.88;;;48.00;24.40;;;;;;5037889;28;20301;-69
2021/09/15 09:15:19;;;;;;;3.10;3.00;;;47.70;24.50;;;;;;5046103;28;20209;-70
2021/09/15 09:17:47;;;;;;;2.80;2.70;;;47.60;24.60;;;;;;5076443;28;20487;-70
2021/09/15 09:20:23;;;;;;;2.55;2.45;;;47.30;24.60;;;;;;5044797;28;21009;-69
2021/09/15 09:23:01;;;;;;;2.45;2.35;;;45.50;25.20;;;;;;5038022;28;21109;-69
2021/09/15 09:25:30;;;;;;;2.30;2.20;;;43.70;26.20;;;;;;5074839;28;20622;-69
2021/09/15 09:27:58;;;;;;;1.98;1.98;;;43.30;26.70;;;;;;5043038;28;20193;-69
2021/09/15 09:30:37;;;;;;;2.40;2.30;;;43.20;26.80;;;;;;5046914;28;20205;-69
2021/09/15 09:33:05;;;;;;;2.00;1.95;;;42.80;26.90;;;;;;5045572;28;20624;-69
2021/09/15 09:35:40;;;;;;;1.98;1.88;;;41.90;27.00;;;;;;5046448;28;20189;-69
2021/09/15 09:38:28;;;;;;;2.03;1.92;;;40.90;27.50;;;;;;5046525;28;20200;-69
2021/09/15 09:40:57;;;;;;;1.75;1.75;;;39.90;28.20;;;;;;5043532;28;20217;-69
2021/09/15 09:43:26;;;;;;;2.15;2.05;;;39.90;28.50;;;;;;5045164;28;20193;-69
2021/09/15 09:45:53;;;;;;;2.25;2.08;;;40.40;28.30;;;;;;5046562;28;20197;-69
2021/09/15 09:48:31;;;;;;;1.80;1.80;;;41.00;27.70;;;;;;5044624;28;20562;-69
2021/09/15 09:50:58;;;;;;;2.50;2.40;;;41.80;28.00;;;;;;5044566;28;20197;-69
2021/09/15 09:53:26;;;;;;;2.00;1.90;;;42.50;27.60;;;;;;5045071;28;20623;-69
2021/09/15 09:55:57;;;;;;;2.42;2.30;;;42.50;26.70;;;;;;5042599;28;20225;-69
2021/09/15 09:58:28;;;;;;;2.25;2.15;;;42.50;26.80;;;;;;5045294;28;20216;-69
2021/09/15 10:00:56;;;;;;;2.80;2.60;;;42.50;27.00;;;;;;5044934;28;20757;-70
2021/09/15 10:03:24;;;;;;;2.15;2.05;;;42.00;27.10;;;;;;5044818;28;20288;-69
2021/09/15 10:05:52;;;;;;;2.33;2.22;;;41.60;27.40;;;;;;5044815;28;20189;-69
2021/09/15 10:08:20;;;;;;;1.83;1.83;;;41.20;27.50;;;;;;5043584;28;20255;-69
2021/09/15 10:10:49;;;;;;;1.88;1.77;;;41.50;27.60;;;;;;5043866;28;20296;-69
2021/09/15 10:13:17;;;;;;;1.67;1.67;;;42.20;27.40;;;;;;5039957;28;20233;-69
2021/09/15 10:15:50;;;;;;;2.00;1.92;;;43.20;27.00;;;;;;5042581;28;20263;-70
2021/09/15 10:18:19;;;;;;;1.80;1.80;;;44.00;26.50;;;;;;5045068;28;20189;-70
2021/09/15 10:20:50;;;;;;;2.50;2.40;;;44.50;26.50;;;;;;5043754;28;20194;-69
2021/09/15 10:23:38;;;;;;;2.05;2.03;;;44.60;25.00;;;;;;5046601;28;20190;-69
2021/09/15 10:26:25;;;;;;;1.75;1.75;;;43.60;25.80;;;;;;5044381;28;20193;-69
2021/09/15 10:29:14;;;;;;;2.70;2.60;;;43.10;26.10;;;;;;5044117;28;20470;-69
2021/09/15 10:31:59;;;;;;;4.15;2.33;;;42.30;26.60;;;;;;5044637;28;20302;-69
2021/09/15 10:34:51;;;;;;;2.45;2.33;;;41.90;26.80;;;;;;5043988;28;20506;-69
2021/09/15 10:37:55;;;;;;;2.78;2.67;;;41.70;26.90;;;;;;5041276;28;20205;-69
2021/09/15 10:40:34;;;;;;;2.27;2.17;;;42.40;26.90;;;;;;5044854;28;20443;-69
2021/09/15 10:43:01;;;;;;;1.83;1.83;;;43.10;26.50;;;;;;5043949;28;20446;-69
2021/09/15 10:45:30;;;;;;;2.22;2.13;;;43.60;26.30;;;;;;5045690;28;20190;-69
2021/09/15 10:48:01;;;;;;;2.30;2.20;;;43.10;26.20;;;;;;5043600;28;20638;-69
2021/09/15 10:50:51;;;;;;;2.00;1.90;;;41.70;26.80;;;;;;5043561;28;20193;-69
2021/09/15 10:53:19;;;;;;;1.90;1.80;;;40.10;27.70;;;;;;5045627;28;20244;-69
2021/09/15 10:55:47;;;;;;;1.75;1.75;;;38.90;28.50;;;;;;5045210;28;20201;-69
2021/09/15 10:58:16;;;;;;;2.05;1.98;;;37.80;29.10;;;;;;5041648;28;20479;-69
2021/09/15 11:00:50;;;;;;;1.88;1.80;;;36.90;29.90;;;;;;5047334;28;20185;-69
2021/09/15 11:03:51;;;;;;;2.28;1.88;;;35.80;30.50;;;;;;5074617;28;20243;-69
2021/09/15 11:06:21;;;;;;;1.95;1.85;;;34.80;31.60;;;;;;5005650;28;20222;-68
2021/09/15 11:08:49;;;;;;;1.83;1.75;;;33.90;32.50;;;;;;5004628;28;20639;-68
2021/09/15 11:11:50;;;;;;;2.10;2.00;;;33.60;33.20;;;;;;5005232;28;20707;-67
2021/09/15 11:14:18;;;;;;;1.70;1.60;;;33.60;33.50;;;;;;5002579;28;20231;-69
2021/09/15 11:16:46;;;;;;;1.80;1.70;;;33.60;33.70;;;;;;5007001;28;20218;-68
2021/09/15 11:19:17;;;;;;;1.92;1.83;;;33.90;33.80;;;;;;5006370;28;20494;-68
2021/09/15 11:21:48;;;;;;;1.10;1.10;;;34.20;33.40;;;;;;5007978;28;20226;-70
2021/09/15 11:24:20;;;;;;;1.63;1.52;;;34.10;33.30;;;;;;5005603;28;20239;-69
2021/09/15 11:26:50;;;;;;;1.20;1.10;;;33.70;33.70;;;;;;5004419;28;20612;-70
2021/09/15 11:29:37;;;;;;;2.00;1.90;;;33.10;34.30;;;;;;5004893;28;20207;-69
2021/09/15 11:32:06;;;;;;;2.90;2.60;;;32.70;34.90;;;;;;4990903;28;20764;-69
2021/09/15 11:34:39;;;;;;;2.05;1.95;;;33.00;35.20;;;;;;5004305;28;20219;-70
2021/09/15 11:37:13;;;;;;;1.58;1.58;;;33.60;34.80;;;;;;5004875;28;20740;-70
2021/09/15 11:39:40;;;;;;;1.75;1.65;;;34.40;34.10;;;;;;5002827;28;20206;-70
2021/09/15 11:42:07;;;;;;;1.60;1.50;;;35.40;33.50;;;;;;5008169;28;20205;-70
2021/09/15 11:44:34;;;;;;;1.92;1.83;;;36.00;32.70;;;;;;5048013;28;20577;-69
2021/09/15 11:47:03;;;;;;;1.40;1.40;;;35.50;32.40;;;;;;5044655;28;20708;-70
2021/09/15 11:49:31;;;;;;;1.55;1.45;;;34.40;33.20;;;;;;5045685;28;20720;-68
2021/09/15 11:52:01;;;;;;;1.55;1.55;;;33.30;34.20;;;;;;5047969;28;20278;-69
2021/09/15 11:54:29;;;;;;;1.98;1.75;;;32.50;35.30;;;;;;5046903;28;20678;-70
2021/09/15 11:57:05;;;;;;;2.20;2.00;;;31.90;36.50;;;;;;5045823;28;20440;-69
2021/09/15 11:59:33;;;;;;;3.30;2.30;;;31.30;37.80;;;;;;5047652;28;20272;-68
2021/09/15 12:02:01;;;;;;;2.30;2.20;;;30.50;38.40;;;;;;5047621;28;20587;-69
2021/09/15 12:04:29;;;;;;;1.92;1.83;;;30.10;39.50;;;;;;5048382;28;20236;-69
2021/09/15 12:06:56;;;;;;;2.20;2.10;;;29.70;40.00;;;;;;5048965;28;20249;-70
2021/09/15 12:09:25;;;;;;;2.67;2.47;;;29.50;40.90;;;;;;5047459;28;20638;-70
2021/09/15 12:11:53;;;;;;;2.78;2.58;;;29.40;41.50;;;;;;5041258;28;20432;-69
2021/09/15 12:14:20;;;;;;;2.70;2.50;;;29.20;42.40;;;;;;5040151;28;20228;-70
2021/09/15 12:16:47;;;;;;;3.20;2.92;;;29.10;43.20;;;;;;5048021;28;20204;-69
2021/09/15 12:19:15;;;;;;;5.00;2.78;;;28.90;43.00;;;;;;5048059;28;20216;-70
2021/09/15 12:21:44;;;;;;;2.53;2.33;;;28.70;43.70;;;;;;5047651;28;20700;-70
2021/09/15 12:24:12;;;;;;;3.55;2.50;;;28.40;44.20;;;;;;5047199;28;20215;-70
2021/09/15 12:26:40;;;;;;;2.72;2.53;;;28.20;44.60;;;;;;5047667;28;20701;-68
2021/09/15 12:29:09;;;;;;;2.85;2.65;;;28.00;45.20;;;;;;5047727;28;20451;-69
2021/09/15 12:31:46;;;;;;;3.38;2.63;;;27.90;45.60;;;;;;5047215;28;20202;-69
2021/09/15 12:34:15;;;;;;;2.40;2.20;;;27.70;46.00;;;;;;5045849;28;20935;-69
2021/09/15 12:36:42;;;;;;;2.13;2.03;;;27.60;46.30;;;;;;5047066;28;20265;-69
2021/09/15 12:39:14;;;;;;;2.10;2.00;;;27.40;46.50;;;;;;5045723;28;20566;-68
2021/09/15 12:41:57;;;;;;;1.60;1.55;;;27.40;46.70;;;;;;5045130;28;20684;-69
2021/09/15 12:44:32;;;;;;;2.03;1.92;;;27.30;46.90;;;;;;5045453;28;20216;-69
2021/09/15 12:47:04;;;;;;;2.35;2.17;;;27.20;47.40;;;;;;5048235;28;20212;-69
2021/09/15 12:49:33;;;;;;;2.22;2.05;;;26.90;48.00;;;;;;5042634;28;20212;-70
2021/09/15 12:52:05;;;;;;;2.03;1.85;;;26.70;48.50;;;;;;5043948;28;20197;-70
2021/09/15 12:54:33;;;;;;;2.95;1.90;;;26.60;49.10;;;;;;5045066;28;20886;-69
2021/09/15 12:57:19;;;;;;;1.73;1.63;;;26.50;49.50;;;;;;5045013;28;20439;-70
2021/09/15 12:59:46;;;;;;;2.00;1.90;;;26.50;49.60;;;;;;5046761;28;20475;-69
2021/09/15 13:02:29;;;;;;;1.85;1.75;;;26.60;50.00;;;;;;5041363;28;20200;-70
2021/09/15 13:04:57;;;;;;;1.60;1.50;;;26.50;50.00;;;;;;5042755;28;20193;-69
2021/09/15 13:07:26;;;;;;;1.70;1.60;;;26.60;49.90;;;;;;5042802;28;20646;-70
2021/09/15 13:09:54;;;;;;;1.20;1.20;;;26.60;50.00;;;;;;5044819;28;20300;-69
2021/09/15 13:12:24;;;;;;;1.60;1.50;;;26.70;50.00;;;;;;5039219;28;20702;-69
2021/09/15 13:14:54;;;;;;;1.35;1.25;;;26.60;49.90;;;;;;5041498;28;20213;-70
2021/09/15 13:17:21;;;;;;;1.27;1.27;;;26.40;50.00;;;;;;5042910;28;20268;-70